Terminal Aerodrome Forecast
Issued by NWS

Home | Current Version | Previous Version | Text Only | Print | Product List | Glossary On
Versions: 1 2 3 4 5 6 7 8 9 10 11 12 13 14 15 16
000
FTUS46 KSEW 181722
TAFBLI
TAF
KBLI 181722Z 1818/1918 19006KT P6SM OVC050
     FM182200 17003KT P6SM SCT035 BKN050 OVC120
     FM190400 06004KT P6SM -RA SCT020 BKN035 OVC060
     FM190800 05010KT 5SM -RA BR BKN015 OVC025=

USA.gov is the U.S. government's official web portal to all federal, state and local government web resources and services.